Time;durP1;ratioP1;P1;durP2;ratioP2;P2;SDS_P1;SDS_P2;PMS_P1;PMS_P2;Temp;Humidity;BMP_temperature;BMP_pressure;BME280_temperature;BME280_humidity;BME280_pressure;Samples;Min_cycle;Max_cycle;Signal;HPM_P1;HPM_P2
2023/08/29 00:02:06;;;;;;;;;;;12.10;99.90;;;;;;5038834;28;19929;-81
2023/08/29 00:04:31;;;;;;;;;;;12.10;99.90;;;;;;5039183;28;19936;-81
2023/08/29 00:06:57;;;;;;;;;;;12.20;99.90;;;;;;5038674;28;19933;-81
2023/08/29 00:09:22;;;;;;;;;;;12.10;99.90;;;;;;5022843;28;20003;-81
2023/08/29 00:11:48;;;;;;;;;;;12.10;99.90;;;;;;5023920;28;19936;-81
2023/08/29 00:14:13;;;;;;;;;;;12.00;99.90;;;;;;5036384;28;19948;-81
2023/08/29 00:16:39;;;;;;;;;;;12.00;99.90;;;;;;5029548;28;19925;-81
2023/08/29 00:19:05;;;;;;;;;;;12.00;99.90;;;;;;5001016;28;19925;-81
2023/08/29 00:21:31;;;;;;;;;;;11.90;99.90;;;;;;5040138;28;19965;-80
2023/08/29 00:23:56;;;;;;;;;;;11.90;99.90;;;;;;5005747;28;19936;-81
2023/08/29 00:26:22;;;;;;;;;;;11.90;99.90;;;;;;5006467;28;19933;-81
2023/08/29 00:28:49;;;;;;;;;;;11.90;99.90;;;;;;5021267;28;20422;-81
2023/08/29 00:31:15;;;;;;;;;;;11.90;99.90;;;;;;5068913;28;20028;-81
2023/08/29 00:33:40;;;;;;;;;;;11.90;99.90;;;;;;5006400;28;20304;-80
2023/08/29 00:36:08;;;;;;;;;;;11.90;99.90;;;;;;5010387;28;20308;-81
2023/08/29 00:38:33;;;;;;;;;;;11.90;99.90;;;;;;5045315;28;19970;-81
2023/08/29 00:40:59;;;;;;;;;;;11.90;99.90;;;;;;5041070;28;19928;-81
2023/08/29 00:43:25;;;;;;;;;;;11.80;99.90;;;;;;5024544;28;19929;-81
2023/08/29 00:45:50;;;;;;;;;;;11.80;99.90;;;;;;5032730;28;19925;-81
2023/08/29 00:48:16;;;;;;;;;;;11.80;99.90;;;;;;5006582;28;19925;-81
2023/08/29 00:50:42;;;;;;;;;;;11.70;99.90;;;;;;5037455;28;19925;-81
2023/08/29 00:53:08;;;;;;;;;;;11.80;99.90;;;;;;5023129;28;19929;-80
2023/08/29 00:55:34;;;;;;;;;;;11.80;99.90;;;;;;5001786;28;19933;-80
2023/08/29 00:58:01;;;;;;;;;;;11.70;99.90;;;;;;5034794;28;19972;-81
2023/08/29 01:00:27;;;;;;;;;;;11.80;99.90;;;;;;5037640;28;19925;-81
2023/08/29 01:02:53;;;;;;;;;;;11.80;99.90;;;;;;5007490;28;19929;-81
2023/08/29 01:05:22;;;;;;;;;;;11.80;99.90;;;;;;5064091;28;19940;-82
2023/08/29 01:07:52;;;;;;;;;;;11.80;99.90;;;;;;5017138;28;19929;-81
2023/08/29 01:10:22;;;;;;;;;;;11.70;99.90;;;;;;5018430;28;19925;-81
2023/08/29 01:13:03;;;;;;;;;;;11.60;99.90;;;;;;5016256;28;19932;-81
2023/08/29 01:15:30;;;;;;;;;;;11.60;99.90;;;;;;5018142;28;19973;-82
2023/08/29 01:18:00;;;;;;;;;;;11.50;99.90;;;;;;5021480;28;19929;-81
2023/08/29 01:20:28;;;;;;;;;;;11.60;99.90;;;;;;5038276;28;19958;-82
2023/08/29 01:22:54;;;;;;;;;;;11.50;99.90;;;;;;5016519;28;19925;-82
2023/08/29 01:25:20;;;;;;;;;;;11.60;99.90;;;;;;5022462;28;19951;-81
2023/08/29 01:27:46;;;;;;;;;;;11.60;99.90;;;;;;5054877;28;19925;-82
2023/08/29 01:30:12;;;;;;;;;;;11.60;99.90;;;;;;5018838;28;19929;-82
2023/08/29 01:32:38;;;;;;;;;;;11.60;99.90;;;;;;5039969;28;19981;-81
2023/08/29 01:35:05;;;;;;;;;;;11.60;99.90;;;;;;5034366;28;20051;-81
2023/08/29 01:37:31;;;;;;;;;;;11.60;99.90;;;;;;5023395;28;20347;-81
2023/08/29 01:39:56;;;;;;;;;;;11.50;99.90;;;;;;5004888;28;19932;-81
2023/08/29 01:42:22;;;;;;;;;;;11.50;99.90;;;;;;5036631;28;19972;-81
2023/08/29 01:44:47;;;;;;;;;;;11.50;99.90;;;;;;5068765;28;19929;-81
2023/08/29 01:47:13;;;;;;;;;;;11.40;99.90;;;;;;5004711;28;19932;-82
2023/08/29 01:49:39;;;;;;;;;;;11.40;99.90;;;;;;5038487;28;19993;-81
2023/08/29 01:52:04;;;;;;;;;;;11.40;99.90;;;;;;5019807;28;20002;-81
2023/08/29 01:54:30;;;;;;;;;;;11.40;99.90;;;;;;5032603;28;19976;-81
2023/08/29 01:56:58;;;;;;;;;;;11.40;99.90;;;;;;5031830;28;20047;-81
2023/08/29 01:59:23;;;;;;;;;;;11.40;99.90;;;;;;5037130;28;19947;-81
2023/08/29 02:01:49;;;;;;;;;;;11.40;99.90;;;;;;5033778;28;19996;-81
2023/08/29 02:04:15;;;;;;;;;;;11.40;99.90;;;;;;5017575;28;19929;-81
2023/08/29 02:06:40;;;;;;;;;;;11.40;99.90;;;;;;5014398;28;20000;-82
2023/08/29 02:09:06;;;;;;;;;;;11.40;99.90;;;;;;5021329;28;19935;-81
2023/08/29 02:11:32;;;;;;;;;;;11.40;99.90;;;;;;5070503;28;20535;-81
2023/08/29 02:13:57;;;;;;;;;;;11.30;99.90;;;;;;5008247;28;19974;-81
2023/08/29 02:16:24;;;;;;;;;;;11.30;99.90;;;;;;5004809;28;19971;-81
2023/08/29 02:18:53;;;;;;;;;;;11.30;99.90;;;;;;5035506;28;19926;-81
2023/08/29 02:21:18;;;;;;;;;;;11.20;99.90;;;;;;5005351;28;20613;-81
2023/08/29 02:23:44;;;;;;;;;;;11.20;99.90;;;;;;5036685;28;19998;-81
2023/08/29 02:26:10;;;;;;;;;;;11.20;99.90;;;;;;5051582;28;20403;-81
2023/08/29 02:28:37;;;;;;;;;;;11.20;99.90;;;;;;5034912;28;19932;-81
2023/08/29 02:31:03;;;;;;;;;;;11.20;99.90;;;;;;5052686;28;19925;-81
2023/08/29 02:33:28;;;;;;;;;;;11.20;99.90;;;;;;5016813;28;19941;-81
2023/08/29 02:35:54;;;;;;;;;;;11.10;99.90;;;;;;5020450;28;19925;-81
2023/08/29 02:38:20;;;;;;;;;;;11.10;99.90;;;;;;5022054;28;19932;-81
2023/08/29 02:40:45;;;;;;;;;;;11.10;99.90;;;;;;5037271;28;19972;-81
2023/08/29 02:43:11;;;;;;;;;;;11.00;99.90;;;;;;5042076;28;19931;-81
2023/08/29 02:45:42;;;;;;;;;;;11.00;99.90;;;;;;5057025;28;20435;-81
2023/08/29 02:48:09;;;;;;;;;;;11.00;99.90;;;;;;5023560;28;19929;-82
2023/08/29 02:50:36;;;;;;;;;;;10.90;99.90;;;;;;5020905;28;19933;-82
2023/08/29 02:53:02;;;;;;;;;;;10.90;99.90;;;;;;5044048;28;19925;-82
2023/08/29 02:55:28;;;;;;;;;;;10.90;99.90;;;;;;5041460;28;19927;-82
2023/08/29 02:57:53;;;;;;;;;;;10.80;99.90;;;;;;5036864;28;19964;-82
2023/08/29 03:00:19;;;;;;;;;;;10.70;99.90;;;;;;5018510;28;19940;-82
2023/08/29 03:02:45;;;;;;;;;;;10.70;99.90;;;;;;5021380;28;19935;-82
2023/08/29 03:05:10;;;;;;;;;;;10.60;99.90;;;;;;5020242;28;20373;-81
2023/08/29 03:07:36;;;;;;;;;;;10.70;99.90;;;;;;5039487;28;19925;-81
2023/08/29 03:10:02;;;;;;;;;;;10.70;99.90;;;;;;5003057;28;19925;-81
2023/08/29 03:12:28;;;;;;;;;;;10.60;99.90;;;;;;5019260;28;20998;-82
2023/08/29 03:14:54;;;;;;;;;;;10.70;99.90;;;;;;5048834;28;19925;-81
2023/08/29 03:17:19;;;;;;;;;;;10.70;99.90;;;;;;5005794;28;19925;-81
2023/08/29 03:19:48;;;;;;;;;;;10.70;99.90;;;;;;5020434;28;20408;-81
2023/08/29 03:22:14;;;;;;;;;;;10.70;99.90;;;;;;5003060;28;19993;-81
2023/08/29 03:24:40;;;;;;;;;;;10.60;99.90;;;;;;5012005;28;19925;-81
2023/08/29 03:27:05;;;;;;;;;;;10.60;99.90;;;;;;5039775;28;19925;-81
2023/08/29 03:29:31;;;;;;;;;;;10.60;99.90;;;;;;5055957;28;20059;-82
2023/08/29 03:31:56;;;;;;;;;;;10.60;99.90;;;;;;5030371;28;20365;-82
2023/08/29 03:34:22;;;;;;;;;;;10.60;99.90;;;;;;5009972;28;19983;-81
2023/08/29 03:36:48;;;;;;;;;;;10.60;99.90;;;;;;5023051;28;19975;-81
2023/08/29 03:39:13;;;;;;;;;;;10.60;99.90;;;;;;5072940;28;19936;-81
2023/08/29 03:41:39;;;;;;;;;;;10.60;99.90;;;;;;5008389;28;20486;-81
2023/08/29 03:44:05;;;;;;;;;;;10.60;99.90;;;;;;5039765;28;19924;-81
2023/08/29 03:46:30;;;;;;;;;;;10.60;99.90;;;;;;5056855;28;20016;-82
2023/08/29 03:48:56;;;;;;;;;;;10.50;99.90;;;;;;5055751;28;19964;-81
2023/08/29 03:51:22;;;;;;;;;;;10.50;99.90;;;;;;5024784;28;19947;-80
2023/08/29 03:53:47;;;;;;;;;;;10.60;99.90;;;;;;5041015;28;20267;-82
2023/08/29 03:56:13;;;;;;;;;;;10.60;99.90;;;;;;5020901;28;19925;-81
2023/08/29 03:58:38;;;;;;;;;;;10.60;99.90;;;;;;5019170;28;19929;-82
2023/08/29 04:01:04;;;;;;;;;;;10.60;99.90;;;;;;5002814;28;19935;-82
2023/08/29 04:03:33;;;;;;;;;;;10.50;99.90;;;;;;5022409;28;19932;-81
2023/08/29 04:05:59;;;;;;;;;;;10.50;99.90;;;;;;5066628;28;19925;-82
2023/08/29 04:08:24;;;;;;;;;;;10.50;99.90;;;;;;5022330;28;20445;-81
2023/08/29 04:10:50;;;;;;;;;;;10.50;99.90;;;;;;5020313;28;19925;-81
2023/08/29 04:13:15;;;;;;;;;;;10.50;99.90;;;;;;5037434;28;20398;-81
2023/08/29 04:15:41;;;;;;;;;;;10.50;99.90;;;;;;5022121;28;19986;-81
2023/08/29 04:18:08;;;;;;;;;;;10.50;99.90;;;;;;5014796;28;19991;-81
2023/08/29 04:20:33;;;;;;;;;;;10.50;99.90;;;;;;5020013;28;19932;-81
2023/08/29 04:23:02;;;;;;;;;;;10.40;99.90;;;;;;5000952;28;19933;-82
2023/08/29 04:25:28;;;;;;;;;;;10.30;99.90;;;;;;5019980;28;19925;-81
2023/08/29 04:27:54;;;;;;;;;;;10.30;99.90;;;;;;5016219;28;19936;-82
2023/08/29 04:30:20;;;;;;;;;;;10.30;99.90;;;;;;5006107;28;19968;-82
2023/08/29 04:32:50;;;;;;;;;;;10.30;99.90;;;;;;5028736;28;19925;-81
2023/08/29 04:35:16;;;;;;;;;;;10.30;99.90;;;;;;5034726;28;19925;-82
2023/08/29 04:37:46;;;;;;;;;;;10.30;99.90;;;;;;5021625;28;19980;-81
2023/08/29 04:40:11;;;;;;;;;;;10.30;99.90;;;;;;5047126;28;19936;-81
2023/08/29 04:42:37;;;;;;;;;;;10.20;99.90;;;;;;5033970;28;19929;-81
2023/08/29 04:45:06;;;;;;;;;;;10.20;99.90;;;;;;5018609;28;20008;-81
2023/08/29 04:47:32;;;;;;;;;;;10.20;99.90;;;;;;5022334;28;19929;-82
2023/08/29 04:49:58;;;;;;;;;;;10.20;99.90;;;;;;5050113;28;20000;-81
2023/08/29 04:52:24;;;;;;;;;;;10.20;99.90;;;;;;5038234;28;19932;-81
2023/08/29 04:54:50;;;;;;;;;;;10.20;99.90;;;;;;5006156;28;19929;-82
2023/08/29 04:57:15;;;;;;;;;;;10.20;99.90;;;;;;5003971;28;19933;-82
2023/08/29 04:59:41;;;;;;;;;;;10.20;99.90;;;;;;5018041;28;19925;-81
2023/08/29 05:02:08;;;;;;;;;;;10.30;99.90;;;;;;5051896;28;19956;-81
2023/08/29 05:04:34;;;;;;;;;;;10.30;99.90;;;;;;5019746;28;19940;-81
2023/08/29 05:06:59;;;;;;;;;;;10.30;99.90;;;;;;5026308;28;19929;-82
2023/08/29 05:09:25;;;;;;;;;;;10.30;99.90;;;;;;5023190;28;19925;-82
2023/08/29 05:11:50;;;;;;;;;;;10.30;99.90;;;;;;5034597;28;20388;-82
2023/08/29 05:14:16;;;;;;;;;;;10.30;99.90;;;;;;5004649;28;19925;-81
2023/08/29 05:16:41;;;;;;;;;;;10.40;99.90;;;;;;5017424;28;19975;-82
2023/08/29 05:19:08;;;;;;;;;;;10.40;99.90;;;;;;5039477;28;19925;-82
2023/08/29 05:21:33;;;;;;;;;;;10.40;99.90;;;;;;5026611;28;19925;-82
2023/08/29 05:23:59;;;;;;;;;;;10.30;99.90;;;;;;5038623;28;19965;-81
2023/08/29 05:26:25;;;;;;;;;;;10.30;99.90;;;;;;5027808;28;20447;-82
2023/08/29 05:28:51;;;;;;;;;;;10.40;99.90;;;;;;5021753;28;19925;-82
2023/08/29 05:31:17;;;;;;;;;;;10.40;99.90;;;;;;5027592;28;20292;-81
2023/08/29 05:33:42;;;;;;;;;;;10.50;99.90;;;;;;5018394;28;19925;-82
2023/08/29 05:36:08;;;;;;;;;;;10.50;99.90;;;;;;5053953;28;20376;-81
2023/08/29 05:38:33;;;;;;;;;;;10.60;99.90;;;;;;5037559;28;19936;-82
2023/08/29 05:40:59;;;;;;;;;;;10.50;99.90;;;;;;5037969;28;19928;-82
2023/08/29 05:43:26;;;;;;;;;;;10.60;99.90;;;;;;5038300;28;20016;-82
2023/08/29 05:45:54;;;;;;;;;;;10.60;99.90;;;;;;5053983;28;19972;-82
2023/08/29 05:48:19;;;;;;;;;;;10.60;99.90;;;;;;5063752;28;19973;-82
2023/08/29 05:50:47;;;;;;;;;;;10.70;99.90;;;;;;5001636;28;19936;-81
2023/08/29 05:53:13;;;;;;;;;;;10.70;99.90;;;;;;5055396;28;19948;-82
2023/08/29 05:55:38;;;;;;;;;;;10.80;99.90;;;;;;4996379;28;19930;-82
2023/08/29 05:58:04;;;;;;;;;;;10.90;99.90;;;;;;5002179;28;19939;-82
2023/08/29 06:00:29;;;;;;;;;;;10.90;99.90;;;;;;5033060;28;19933;-82
2023/08/29 06:02:55;;;;;;;;;;;11.00;99.90;;;;;;5023644;28;21050;-82
2023/08/29 06:05:21;;;;;;;;;;;11.00;99.90;;;;;;5014905;28;19925;-82
2023/08/29 06:07:46;;;;;;;;;;;11.00;99.90;;;;;;5015613;28;19957;-82
2023/08/29 06:10:12;;;;;;;;;;;11.10;99.90;;;;;;5015296;28;19934;-82
2023/08/29 06:12:38;;;;;;;;;;;11.20;99.90;;;;;;5015962;28;19959;-82
2023/08/29 06:15:04;;;;;;;;;;;11.20;99.90;;;;;;5019242;28;19984;-82
2023/08/29 06:17:30;;;;;;;;;;;11.30;99.90;;;;;;5015659;28;19929;-83
2023/08/29 06:19:56;;;;;;;;;;;11.40;99.90;;;;;;5016190;28;20063;-82
2023/08/29 06:22:21;;;;;;;;;;;11.40;99.90;;;;;;5048861;28;20003;-82
2023/08/29 06:24:47;;;;;;;;;;;11.40;99.90;;;;;;5004436;28;19969;-82
2023/08/29 06:27:12;;;;;;;;;;;11.50;99.90;;;;;;5001009;28;20345;-81
2023/08/29 06:29:38;;;;;;;;;;;11.50;99.90;;;;;;4998387;28;19932;-82
2023/08/29 06:32:03;;;;;;;;;;;11.60;99.90;;;;;;5021886;28;19926;-82
2023/08/29 06:34:29;;;;;;;;;;;11.60;99.90;;;;;;5064020;28;19929;-82
2023/08/29 06:36:55;;;;;;;;;;;11.60;99.90;;;;;;5017250;28;19972;-82
2023/08/29 06:39:20;;;;;;;;;;;11.70;99.90;;;;;;5000116;28;19971;-82
2023/08/29 06:41:46;;;;;;;;;;;11.80;99.90;;;;;;5031422;28;19933;-81
2023/08/29 06:44:11;;;;;;;;;;;11.80;99.90;;;;;;5007556;28;20439;-82
2023/08/29 06:46:37;;;;;;;;;;;12.00;99.90;;;;;;5019586;28;19929;-81
2023/08/29 06:49:05;;;;;;;;;;;12.10;99.90;;;;;;5018552;28;19932;-81
2023/08/29 06:51:31;;;;;;;;;;;12.20;99.90;;;;;;4999859;28;20435;-81
2023/08/29 06:53:57;;;;;;;;;;;12.30;99.90;;;;;;5049895;28;19925;-81
2023/08/29 06:56:23;;;;;;;;;;;12.40;99.90;;;;;;5023295;28;19925;-81
2023/08/29 06:58:49;;;;;;;;;;;12.50;99.90;;;;;;5017601;28;20015;-81
2023/08/29 07:01:15;;;;;;;;;;;12.70;99.90;;;;;;5067209;28;19929;-81
2023/08/29 07:03:41;;;;;;;;;;;12.80;99.90;;;;;;5053505;28;19925;-81
2023/08/29 07:06:06;;;;;;;;;;;12.90;99.90;;;;;;5003289;28;20563;-81
2023/08/29 07:08:32;;;;;;;;;;;13.10;99.90;;;;;;5023802;28;19924;-82
2023/08/29 07:10:58;;;;;;;;;;;13.30;99.90;;;;;;5019196;28;20010;-81
2023/08/29 07:13:23;;;;;;;;;;;13.50;99.90;;;;;;5003980;28;19925;-81
2023/08/29 07:15:49;;;;;;;;;;;13.70;99.90;;;;;;5021801;28;19933;-81
2023/08/29 07:18:15;;;;;;;;;;;14.00;99.90;;;;;;5040334;28;20783;-80
2023/08/29 07:20:40;;;;;;;;;;;14.40;99.90;;;;;;5036056;28;19939;-80
2023/08/29 07:23:06;;;;;;;;;;;14.90;99.90;;;;;;5022554;28;20563;-80
2023/08/29 07:25:39;;;;;;;;;;;15.60;99.90;;;;;;5007317;28;19932;-80
2023/08/29 07:28:08;;;;;;;;;;;16.30;99.90;;;;;;5023766;28;19929;-80
2023/08/29 07:30:34;;;;;;;;;;;16.90;99.90;;;;;;5067123;28;19989;-80
2023/08/29 07:32:59;;;;;;;;;;;17.40;99.90;;;;;;5020716;28;19936;-81
2023/08/29 07:35:25;;;;;;;;;;;17.80;99.90;;;;;;5040038;28;19929;-80
2023/08/29 07:37:51;;;;;;;;;;;18.00;99.90;;;;;;5040431;28;19925;-81
2023/08/29 07:40:17;;;;;;;;;;;18.20;99.90;;;;;;5051945;28;20319;-81
2023/08/29 07:42:43;;;;;;;;;;;18.40;99.90;;;;;;5054321;28;19948;-81
2023/08/29 07:45:09;;;;;;;;;;;18.50;99.90;;;;;;5021821;28;19925;-81
2023/08/29 07:47:34;;;;;;;;;;;18.50;99.90;;;;;;5036165;28;19956;-80
2023/08/29 07:50:00;;;;;;;;;;;18.50;99.90;;;;;;5023311;28;19933;-81
2023/08/29 07:52:26;;;;;;;;;;;18.50;99.90;;;;;;5056172;28;19925;-80
2023/08/29 07:54:51;;;;;;;;;;;18.50;99.90;;;;;;5056888;28;19929;-81
2023/08/29 07:57:17;;;;;;;;;;;18.50;99.90;;;;;;5023373;28;19976;-81
2023/08/29 07:59:42;;;;;;;;;;;18.50;99.90;;;;;;5014448;28;19925;-81
2023/08/29 08:02:08;;;;;;;;;;;18.50;99.90;;;;;;5031104;28;19926;-81
2023/08/29 08:04:34;;;;;;;;;;;18.50;99.90;;;;;;5036823;28;19964;-81
2023/08/29 08:07:00;;;;;;;;;;;18.60;99.90;;;;;;5015599;28;19944;-82
2023/08/29 08:09:26;;;;;;;;;;;18.50;99.90;;;;;;5065332;28;19983;-86
2023/08/29 08:11:52;;;;;;;;;;;18.60;99.90;;;;;;5041276;28;19956;-86
2023/08/29 08:14:17;;;;;;;;;;;18.60;99.90;;;;;;5039978;28;19929;-86
2023/08/29 08:16:43;;;;;;;;;;;18.60;99.90;;;;;;5075892;28;19932;-86
2023/08/29 08:19:09;;;;;;;;;;;18.60;99.90;;;;;;5037904;28;19933;-86
2023/08/29 08:21:35;;;;;;;;;;;18.70;99.90;;;;;;5027720;28;19925;-86
2023/08/29 08:24:01;;;;;;;;;;;18.70;99.90;;;;;;5039206;28;19937;-86
2023/08/29 08:26:27;;;;;;;;;;;18.80;99.90;;;;;;5022861;28;19981;-87
2023/08/29 08:28:54;;;;;;;;;;;18.80;99.90;;;;;;5055994;28;19935;-86
2023/08/29 08:31:20;;;;;;;;;;;18.80;99.90;;;;;;5038982;28;19936;-87
2023/08/29 08:33:46;;;;;;;;;;;18.90;99.90;;;;;;5005791;28;19925;-87
2023/08/29 08:36:11;;;;;;;;;;;19.00;99.90;;;;;;5012242;28;19929;-88
2023/08/29 08:38:37;;;;;;;;;;;19.10;99.90;;;;;;5021171;28;19969;-88
2023/08/29 08:41:03;;;;;;;;;;;19.10;99.90;;;;;;5039416;28;19925;-88
2023/08/29 08:43:30;;;;;;;;;;;19.10;99.90;;;;;;5022412;28;20811;-88
2023/08/29 08:45:56;;;;;;;;;;;19.00;99.90;;;;;;5059007;28;19925;-87
2023/08/29 08:48:21;;;;;;;;;;;18.90;99.90;;;;;;5039082;28;19933;-88
2023/08/29 08:50:48;;;;;;;;;;;18.80;99.90;;;;;;5009685;28;19925;-88
2023/08/29 08:53:14;;;;;;;;;;;18.90;99.90;;;;;;5027841;28;20294;-88
2023/08/29 08:55:40;;;;;;;;;;;18.90;99.90;;;;;;5041809;28;19936;-88
2023/08/29 08:58:06;;;;;;;;;;;19.00;99.90;;;;;;5000986;28;21761;-89
2023/08/29 09:00:32;;;;;;;;;;;19.20;99.90;;;;;;4999832;28;20460;-91
2023/08/29 09:02:58;;;;;;;;;;;19.30;99.90;;;;;;5049634;28;19932;-89
2023/08/29 09:05:24;;;;;;;;;;;19.40;99.90;;;;;;5055868;28;19925;-88
2023/08/29 09:07:49;;;;;;;;;;;19.50;99.90;;;;;;5041230;28;19929;-90
2023/08/29 09:10:15;;;;;;;;;;;19.70;99.90;;;;;;5025646;28;19925;-88
2023/08/29 09:12:47;;;;;;;;;;;20.00;99.90;;;;;;5019593;28;19921;-89
2023/08/29 09:15:16;;;;;;;;;;;20.30;99.90;;;;;;5025002;28;19925;-88
2023/08/29 09:17:48;;;;;;;;;;;20.60;99.90;;;;;;5033054;28;19935;-89
2023/08/29 09:20:14;;;;;;;;;;;20.90;99.90;;;;;;5056901;28;19951;-88
2023/08/29 09:22:43;;;;;;;;;;;21.10;99.90;;;;;;5025118;28;19925;-89
2023/08/29 09:25:09;;;;;;;;;;;21.20;99.90;;;;;;5055418;28;19929;-88
2023/08/29 09:27:42;;;;;;;;;;;21.40;99.90;;;;;;5022672;28;20018;-88
2023/08/29 09:30:09;;;;;;;;;;;21.80;99.90;;;;;;5051836;28;19925;-87
2023/08/29 09:32:34;;;;;;;;;;;22.00;99.90;;;;;;5066097;28;19929;-87
2023/08/29 09:35:00;;;;;;;;;;;22.30;99.90;;;;;;4999527;28;20395;-88
2023/08/29 09:37:26;;;;;;;;;;;22.40;99.90;;;;;;5002217;28;19980;-87
2023/08/29 09:39:55;;;;;;;;;;;22.40;99.90;;;;;;5038000;28;19933;-88
2023/08/29 09:42:21;;;;;;;;;;;22.40;99.90;;;;;;5037794;28;19925;-88
2023/08/29 09:44:48;;;;;;;;;;;22.40;99.90;;;;;;5054911;28;19932;-89
2023/08/29 09:47:21;;;;;;;;;;;22.50;99.90;;;;;;5020333;28;19940;-88
2023/08/29 09:49:49;;;;;;;;;;;22.60;99.90;;;;;;5018431;28;19925;-88
2023/08/29 09:52:15;;;;;;;;;;;22.60;99.90;;;;;;5064609;28;20114;-87
2023/08/29 09:54:46;;;;;;;;;;;22.90;99.90;;;;;;5013110;28;19933;-89
2023/08/29 09:57:13;;;;;;;;;;;23.00;99.90;;;;;;5013550;28;19929;-89
2023/08/29 09:59:39;;;;;;;;;;;23.20;99.90;;;;;;5016123;28;20057;-88
2023/08/29 10:02:06;;;;;;;;;;;23.50;99.90;;;;;;5033451;28;20381;-88
2023/08/29 10:04:34;;;;;;;;;;;23.70;99.90;;;;;;5050824;28;19980;-90
2023/08/29 10:07:00;;;;;;;;;;;23.90;99.90;;;;;;5049724;28;19976;-92
2023/08/29 10:09:28;;;;;;;;;;;24.10;99.90;;;;;;5039408;28;19929;-88
2023/08/29 10:11:54;;;;;;;;;;;23.70;99.90;;;;;;5039171;28;19971;-88
2023/08/29 10:14:22;;;;;;;;;;;23.10;99.90;;;;;;5046700;28;19933;-89
2023/08/29 10:16:49;;;;;;;;;;;22.60;99.90;;;;;;5020250;28;20408;-89
2023/08/29 10:19:15;;;;;;;;;;;22.10;99.90;;;;;;5035192;28;19972;-89
2023/08/29 10:21:42;;;;;;;;;;;21.70;99.90;;;;;;5021375;28;19926;-90
2023/08/29 10:24:08;;;;;;;;;;;21.30;99.90;;;;;;5039492;28;19925;-89
2023/08/29 10:26:34;;;;;;;;;;;20.90;99.90;;;;;;5037646;28;19956;-88
2023/08/29 10:29:00;;;;;;;;;;;20.50;99.90;;;;;;5013315;28;20065;-89
2023/08/29 10:31:26;;;;;;;;;;;20.20;99.90;;;;;;5001854;28;20385;-89
2023/08/29 10:33:54;;;;;;;;;;;20.00;99.90;;;;;;5019361;28;19926;-89
2023/08/29 10:36:20;;;;;;;;;;;19.80;99.90;;;;;;5021906;28;19929;-89
2023/08/29 10:38:49;;;;;;;;;;;19.60;99.90;;;;;;5042286;28;20292;-89
2023/08/29 10:41:15;;;;;;;;;;;19.40;99.90;;;;;;5041891;28;19932;-88
2023/08/29 10:43:41;;;;;;;;;;;19.30;99.90;;;;;;5008758;28;19925;-88
2023/08/29 10:46:10;;;;;;;;;;;19.20;99.90;;;;;;5041380;28;20397;-89
2023/08/29 10:48:35;;;;;;;;;;;19.00;99.90;;;;;;5055283;28;19932;-88
2023/08/29 10:51:10;;;;;;;;;;;18.90;99.90;;;;;;5036039;28;19992;-89
2023/08/29 10:53:48;;;;;;;;;;;18.80;99.90;;;;;;5028875;28;19979;-88
2023/08/29 10:56:15;;;;;;;;;;;18.80;99.90;;;;;;5054092;28;19981;-89
2023/08/29 10:58:41;;;;;;;;;;;18.70;99.90;;;;;;5053721;28;19932;-88
2023/08/29 11:01:33;;;;;;;;;;;18.70;99.90;;;;;;5071154;28;19948;-89
2023/08/29 11:04:00;;;;;;;;;;;18.70;99.90;;;;;;5030963;28;19932;-80
2023/08/29 11:06:26;;;;;;;;;;;18.70;99.90;;;;;;5015316;28;19930;-80
2023/08/29 11:09:11;;;;;;;;;;;18.70;99.90;;;;;;5055497;28;19931;-80
2023/08/29 11:11:36;;;;;;;;;;;18.80;99.90;;;;;;5040027;28;19929;-80
2023/08/29 11:14:03;;;;;;;;;;;18.90;99.90;;;;;;5040717;28;20285;-80
2023/08/29 11:16:29;;;;;;;;;;;18.90;99.90;;;;;;5039925;28;19931;-81
2023/08/29 11:19:05;;;;;;;;;;;19.00;99.90;;;;;;5074175;28;19971;-80
2023/08/29 11:21:31;;;;;;;;;;;19.10;99.90;;;;;;5039914;28;19960;-80
2023/08/29 11:23:57;;;;;;;;;;;19.20;99.90;;;;;;5040559;28;19929;-81
2023/08/29 11:26:23;;;;;;;;;;;19.30;99.90;;;;;;5040610;28;19984;-80
2023/08/29 11:28:49;;;;;;;;;;;19.40;99.90;;;;;;5040589;28;19929;-81
2023/08/29 11:31:18;;;;;;;;;;;19.50;99.90;;;;;;5022985;28;20028;-80
2023/08/29 11:33:44;;;;;;;;;;;19.60;99.90;;;;;;5056400;28;19936;-80
2023/08/29 11:36:10;;;;;;;;;;;19.60;99.90;;;;;;5007232;28;19933;-80
2023/08/29 11:38:37;;;;;;;;;;;19.70;99.90;;;;;;5056627;28;20051;-80
2023/08/29 11:41:05;;;;;;;;;;;19.80;99.90;;;;;;5038903;28;19925;-80
2023/08/29 11:43:31;;;;;;;;;;;19.80;99.90;;;;;;5036822;28;19974;-80
2023/08/29 11:45:57;;;;;;;;;;;19.90;99.90;;;;;;5022411;28;19925;-80
2023/08/29 11:48:24;;;;;;;;;;;19.90;99.90;;;;;;5038015;28;19936;-80
2023/08/29 11:50:54;;;;;;;;;;;19.90;99.90;;;;;;5033542;28;21056;-80
2023/08/29 11:53:38;;;;;;;;;;;20.00;99.90;;;;;;5047907;28;19929;-80
2023/08/29 11:56:04;;;;;;;;;;;20.00;99.90;;;;;;5048322;28;19925;-82
2023/08/29 11:58:31;;;;;;;;;;;20.10;99.90;;;;;;5050795;28;19933;-80
2023/08/29 12:00:57;;;;;;;;;;;20.30;99.90;;;;;;5018250;28;20470;-80
2023/08/29 12:03:25;;;;;;;;;;;20.40;99.90;;;;;;5029901;28;20103;-80
2023/08/29 12:05:51;;;;;;;;;;;20.50;99.90;;;;;;5015243;28;19933;-80
2023/08/29 12:08:32;;;;;;;;;;;20.60;99.90;;;;;;5015536;28;20541;-80
2023/08/29 12:10:58;;;;;;;;;;;20.70;99.90;;;;;;5048579;28;19989;-81
2023/08/29 12:13:23;;;;;;;;;;;20.80;99.90;;;;;;5013355;28;20003;-80
2023/08/29 12:15:49;;;;;;;;;;;20.90;99.90;;;;;;5004368;28;19951;-80
2023/08/29 12:18:22;;;;;;;;;;;21.00;99.90;;;;;;5032342;28;20012;-80
2023/08/29 12:20:47;;;;;;;;;;;21.00;99.90;;;;;;5015452;28;19929;-80
2023/08/29 12:23:22;;;;;;;;;;;21.10;99.90;;;;;;5049781;28;19948;-80
2023/08/29 12:25:48;;;;;;;;;;;21.20;99.90;;;;;;5038788;28;19929;-80
2023/08/29 12:28:13;;;;;;;;;;;21.30;99.90;;;;;;5000274;28;19925;-80
2023/08/29 12:30:39;;;;;;;;;;;21.30;99.90;;;;;;5034652;28;19952;-80
2023/08/29 12:33:05;;;;;;;;;;;21.30;99.90;;;;;;5017777;28;19976;-80
2023/08/29 12:35:31;;;;;;;;;;;21.30;99.90;;;;;;5050610;28;19936;-80
2023/08/29 12:37:56;;;;;;;;;;;21.30;99.90;;;;;;5012436;28;20309;-80
2023/08/29 12:40:22;;;;;;;;;;;21.20;99.90;;;;;;5026393;28;19936;-79
2023/08/29 12:42:49;;;;;;;;;;;21.30;99.90;;;;;;5035853;28;19925;-80
2023/08/29 12:45:15;;;;;;;;;;;21.40;99.90;;;;;;5040765;28;19986;-80
2023/08/29 12:47:41;;;;;;;;;;;21.40;99.90;;;;;;5014059;28;19925;-80
2023/08/29 12:50:06;;;;;;;;;;;21.40;99.90;;;;;;5004036;28;19925;-79
2023/08/29 12:52:32;;;;;;;;;;;21.30;99.90;;;;;;4999175;28;20532;-79
2023/08/29 12:54:58;;;;;;;;;;;21.10;99.90;;;;;;5033991;28;19936;-80
2023/08/29 12:57:23;;;;;;;;;;;20.90;99.90;;;;;;5034922;28;19931;-77
2023/08/29 12:59:49;;;;;;;;;;;20.70;99.90;;;;;;5018087;28;19940;-79
2023/08/29 13:02:15;;;;;;;;;;;20.50;99.90;;;;;;4996724;28;19926;-79
2023/08/29 13:04:41;;;;;;;;;;;20.30;99.90;;;;;;5048679;28;19983;-80
2023/08/29 13:07:06;;;;;;;;;;;20.20;99.90;;;;;;5020887;28;19952;-80
2023/08/29 13:09:32;;;;;;;;;;;20.10;99.90;;;;;;5031980;28;19944;-80
2023/08/29 13:11:58;;;;;;;;;;;20.00;99.90;;;;;;5034914;28;19936;-79
2023/08/29 13:14:23;;;;;;;;;;;20.00;99.90;;;;;;5046488;28;19925;-80
2023/08/29 13:16:49;;;;;;;;;;;20.00;99.90;;;;;;5032692;28;19936;-79
2023/08/29 13:19:14;;;;;;;;;;;20.00;99.90;;;;;;5002461;28;19929;-80
2023/08/29 13:21:40;;;;;;;;;;;20.00;99.90;;;;;;5035039;28;20549;-79
2023/08/29 13:24:06;;;;;;;;;;;20.00;99.90;;;;;;5001142;28;19935;-80
2023/08/29 13:26:31;;;;;;;;;;;20.00;99.90;;;;;;5018250;28;19925;-79
2023/08/29 13:28:59;;;;;;;;;;;20.00;99.90;;;;;;5032823;28;19965;-80
2023/08/29 13:31:24;;;;;;;;;;;20.00;99.90;;;;;;5001653;28;19929;-79
2023/08/29 13:33:51;;;;;;;;;;;20.00;99.90;;;;;;5003443;28;20043;-79
2023/08/29 13:36:16;;;;;;;;;;;20.00;99.90;;;;;;5001861;28;20043;-79
2023/08/29 13:38:42;;;;;;;;;;;20.00;99.90;;;;;;5050001;28;20636;-79
2023/08/29 13:41:08;;;;;;;;;;;20.00;99.90;;;;;;5042822;28;19977;-79
2023/08/29 13:43:33;;;;;;;;;;;20.10;99.90;;;;;;5016042;28;19972;-79
2023/08/29 13:46:00;;;;;;;;;;;20.10;99.90;;;;;;5047763;28;19933;-80
2023/08/29 13:48:25;;;;;;;;;;;20.20;99.90;;;;;;5057866;28;19969;-79
2023/08/29 13:50:51;;;;;;;;;;;20.30;99.90;;;;;;5021064;28;19932;-79
2023/08/29 13:53:17;;;;;;;;;;;20.40;99.90;;;;;;5030077;28;19932;-79
2023/08/29 13:55:43;;;;;;;;;;;20.50;99.90;;;;;;5021276;28;19925;-79
2023/08/29 13:58:08;;;;;;;;;;;20.50;99.90;;;;;;5004151;28;19972;-79
2023/08/29 14:00:34;;;;;;;;;;;20.50;99.90;;;;;;5025997;28;19933;-79
2023/08/29 14:02:59;;;;;;;;;;;20.60;99.90;;;;;;5039503;28;19936;-80
2023/08/29 14:05:25;;;;;;;;;;;20.70;99.90;;;;;;5023183;28;19963;-79
2023/08/29 14:07:51;;;;;;;;;;;20.80;99.90;;;;;;5057723;28;19928;-79
2023/08/29 14:10:17;;;;;;;;;;;20.80;99.90;;;;;;5024228;28;19929;-79
2023/08/29 14:12:42;;;;;;;;;;;20.80;99.90;;;;;;5023461;28;19925;-79